createdAt,value
2024-04-11T00:01:14.163Z,8.24
2024-04-11T00:03:44.766Z,8.24
2024-04-11T00:06:14.768Z,8.17
2024-04-11T00:08:44.699Z,8.20
2024-04-11T00:11:14.070Z,8.17
2024-04-11T00:13:44.066Z,8.13
2024-04-11T00:16:11.480Z,8.12
2024-04-11T00:18:42.999Z,8.15
2024-04-11T00:21:10.511Z,8.16
2024-04-11T00:23:43.187Z,8.15
2024-04-11T00:26:11.083Z,8.14
2024-04-11T00:28:40.956Z,8.05
2024-04-11T00:31:09.245Z,8.04
2024-04-11T00:33:56.132Z,8.00
2024-04-11T00:36:26.157Z,8.02
2024-04-11T00:38:59.723Z,7.96
2024-04-11T00:41:27.382Z,7.94
2024-04-11T00:43:57.255Z,7.85
2024-04-11T00:46:24.946Z,7.88
2024-04-11T00:48:55.565Z,7.84
2024-04-11T00:51:23.986Z,7.85
2024-04-11T00:53:58.115Z,7.78
2024-04-11T00:56:28.737Z,7.80
2024-04-11T00:59:00.187Z,7.75
2024-04-11T01:01:27.431Z,7.78
2024-04-11T01:03:57.620Z,7.78
2024-04-11T01:06:25.697Z,7.73
2024-04-11T01:08:55.779Z,7.68
2024-04-11T01:11:23.189Z,7.67
2024-04-11T01:13:56.867Z,7.66
2024-04-11T01:16:26.967Z,7.67
2024-04-11T01:18:57.617Z,7.71
2024-04-11T01:21:25.304Z,7.72
2024-04-11T01:23:57.922Z,7.75
2024-04-11T01:26:25.855Z,7.76
2024-04-11T01:28:55.861Z,7.77
2024-04-11T01:31:23.163Z,7.69
2024-04-11T01:33:53.164Z,7.71
2024-04-11T01:36:20.526Z,7.71
2024-04-11T01:38:51.431Z,7.69
2024-04-11T01:41:21.442Z,7.71
2024-04-11T01:43:51.402Z,7.71
2024-04-11T01:46:19.783Z,7.73
2024-04-11T01:48:50.036Z,7.71
2024-04-11T01:51:17.429Z,7.72
2024-04-11T01:53:47.333Z,7.71
2024-04-11T01:56:14.606Z,7.67
2024-04-11T01:58:47.083Z,7.63
2024-04-11T02:01:18.575Z,7.62
2024-04-11T02:03:49.559Z,7.68
2024-04-11T02:06:17.192Z,7.65
2024-04-11T02:08:50.505Z,7.65
2024-04-11T02:11:17.892Z,7.65
2024-04-11T02:13:50.517Z,7.62
2024-04-11T02:16:17.811Z,7.61
2024-04-11T02:18:48.138Z,7.60
2024-04-11T02:21:15.513Z,7.60
2024-04-11T02:23:46.075Z,7.58
2024-04-11T02:26:14.510Z,7.56
2024-04-11T02:28:47.080Z,7.55
2024-04-11T02:31:16.964Z,7.53
2024-04-11T02:33:47.715Z,7.51
2024-04-11T02:36:15.178Z,7.46
2024-04-11T02:38:45.129Z,7.43
2024-04-11T02:41:12.488Z,7.42
2024-04-11T02:43:42.395Z,7.40
2024-04-11T02:46:16.451Z,7.39
2024-04-11T02:48:50.559Z,7.38
2024-04-11T02:51:19.239Z,7.38
2024-04-11T02:53:49.419Z,7.36
2024-04-11T02:56:18.029Z,7.35
2024-04-11T02:58:48.102Z,7.33
2024-04-11T03:01:16.764Z,7.35
2024-04-11T03:03:50.233Z,7.32
2024-04-11T03:06:18.618Z,7.31
2024-04-11T03:08:53.211Z,7.29
2024-04-11T03:11:20.654Z,7.26
2024-04-11T03:13:50.636Z,7.27
2024-04-11T03:16:19.828Z,7.25
2024-04-11T03:18:52.515Z,7.23
2024-04-11T03:21:20.562Z,7.17
2024-04-11T03:23:51.484Z,7.20
2024-04-11T03:26:18.778Z,7.19
2024-04-11T03:28:49.017Z,7.20
2024-04-11T03:31:19.869Z,7.16
2024-04-11T03:33:53.652Z,7.16
2024-04-11T03:36:21.487Z,7.14
2024-04-11T03:38:55.679Z,7.12
2024-04-11T03:41:23.800Z,7.11
2024-04-11T03:43:56.578Z,7.11
2024-04-11T03:46:26.753Z,7.08
2024-04-11T03:49:00.177Z,7.10
2024-04-11T03:51:31.016Z,7.08
2024-04-11T03:54:04.750Z,7.09
2024-04-11T03:56:32.469Z,7.03
2024-04-11T03:59:04.903Z,7.01
2024-04-11T04:01:32.320Z,7.00
2024-04-11T04:04:08.682Z,6.99
2024-04-11T04:06:37.454Z,7.02
2024-04-11T04:09:10.323Z,7.02
2024-04-11T04:11:39.652Z,6.99
2024-04-11T04:14:14.087Z,7.00
2024-04-11T04:16:42.654Z,7.00
2024-04-11T04:19:15.492Z,6.99
2024-04-11T04:21:43.048Z,6.99
2024-04-11T04:24:13.446Z,6.98
2024-04-11T04:26:41.842Z,6.98
2024-04-11T04:29:11.845Z,6.98
2024-04-11T04:31:39.131Z,6.97
2024-04-11T04:34:11.356Z,6.96
2024-04-11T04:36:42.819Z,7.00
2024-04-11T04:39:16.076Z,6.96
2024-04-11T04:41:46.166Z,6.97
2024-04-11T04:44:16.533Z,6.98
2024-04-11T04:46:44.438Z,7.00
2024-04-11T04:49:14.474Z,7.00
2024-04-11T04:51:45.684Z,7.01
2024-04-11T04:54:17.616Z,7.02
2024-04-11T04:56:46.856Z,7.04
2024-04-11T04:59:18.022Z,7.04
2024-04-11T05:01:45.365Z,7.05
2024-04-11T05:04:17.095Z,7.06
2024-04-11T05:06:50.756Z,7.08
2024-04-11T05:09:24.875Z,7.11
2024-04-11T05:11:52.296Z,7.12
2024-04-11T05:14:22.370Z,7.16
2024-04-11T05:16:51.277Z,7.19
2024-04-11T05:19:21.941Z,7.23
2024-04-11T05:21:51.836Z,7.28
2024-04-11T05:24:21.703Z,7.32
2024-04-11T05:26:52.104Z,7.38
2024-04-11T05:29:22.634Z,7.41
2024-04-11T05:31:50.052Z,7.47
2024-04-11T05:34:23.477Z,7.50
2024-04-11T05:36:54.357Z,7.55
2024-04-11T05:39:24.378Z,7.60
2024-04-11T05:41:53.245Z,7.63
2024-04-11T05:44:23.419Z,7.67
2024-04-11T05:46:50.799Z,7.70
2024-04-11T05:49:21.497Z,7.75
2024-04-11T05:51:48.856Z,7.79
2024-04-11T05:54:22.027Z,7.86
2024-04-11T05:56:49.462Z,7.91
2024-04-11T05:59:21.001Z,7.95
2024-04-11T06:01:48.648Z,8.01
2024-04-11T06:04:19.136Z,8.03
2024-04-11T06:06:46.483Z,8.06
2024-04-11T06:09:17.843Z,8.09
2024-04-11T06:11:47.940Z,8.11
2024-04-11T06:14:17.873Z,8.13
2024-04-11T06:16:45.299Z,8.18
2024-04-11T06:19:15.217Z,8.23
2024-04-11T06:21:46.597Z,8.26
2024-04-11T06:24:16.735Z,8.35
2024-04-11T06:26:44.160Z,8.40
2024-04-11T06:29:20.873Z,8.45
2024-04-11T06:31:48.723Z,8.57
2024-04-11T06:34:18.762Z,8.70
2024-04-11T06:36:50.691Z,8.79
2024-04-11T06:39:20.756Z,8.88
2024-04-11T06:41:50.543Z,8.94
2024-04-11T06:44:23.232Z,8.93
2024-04-11T06:46:50.708Z,8.95
2024-04-11T06:49:20.790Z,9.02
2024-04-11T06:51:48.728Z,9.11
2024-04-11T06:54:19.604Z,9.20
2024-04-11T06:56:47.327Z,9.32
2024-04-11T06:59:18.819Z,9.44
2024-04-11T07:01:49.700Z,9.51
2024-04-11T07:04:20.083Z,9.58
2024-04-11T07:06:47.811Z,9.69
2024-04-11T07:09:18.189Z,9.67
2024-04-11T07:11:50.234Z,9.71
2024-04-11T07:14:25.192Z,9.77
2024-04-11T07:16:58.631Z,9.78
2024-04-11T07:19:29.863Z,9.86
2024-04-11T07:21:58.320Z,9.93
2024-04-11T07:24:28.669Z,9.97
2024-04-11T07:26:58.131Z,10.01
2024-04-11T07:29:31.033Z,10.00
2024-04-11T07:32:02.185Z,10.02
2024-04-11T07:34:32.458Z,10.09
2024-04-11T07:37:00.673Z,10.11
2024-04-11T07:39:30.906Z,10.14
2024-04-11T07:42:02.360Z,10.16
2024-04-11T07:44:33.523Z,10.16
2024-04-11T07:47:15.241Z,10.15
2024-04-11T07:49:50.466Z,10.20
2024-04-11T07:52:18.381Z,10.24
2024-04-11T07:54:49.305Z,10.29
2024-04-11T07:57:18.734Z,10.25
2024-04-11T07:59:50.301Z,10.32
2024-04-11T08:02:21.006Z,10.28
2024-04-11T08:04:51.854Z,10.32
2024-04-11T08:07:19.551Z,10.34
2024-04-11T08:09:57.222Z,10.41
2024-04-11T08:12:25.502Z,10.46
2024-04-11T08:14:56.061Z,10.54
2024-04-11T08:17:27.262Z,10.52
2024-04-11T08:19:58.980Z,10.55
2024-04-11T08:22:29.068Z,10.55
2024-04-11T08:24:59.633Z,10.61
2024-04-11T08:27:27.478Z,10.64
2024-04-11T08:29:57.857Z,10.65
2024-04-11T08:32:28.156Z,10.72
2024-04-11T08:34:58.455Z,10.77
2024-04-11T08:37:26.104Z,10.76
2024-04-11T08:39:56.380Z,10.80
2024-04-11T08:42:24.194Z,10.84
2024-04-11T08:44:58.936Z,10.80
2024-04-11T08:47:29.707Z,10.89
2024-04-11T08:50:00.184Z,10.91
2024-04-11T08:52:34.459Z,10.91
2024-04-11T08:55:05.360Z,10.98
2024-04-11T08:57:34.059Z,10.99
2024-04-11T09:00:13.746Z,11.00
2024-04-11T09:02:45.381Z,11.01
2024-04-11T09:05:16.763Z,11.09
2024-04-11T09:07:46.274Z,11.13
2024-04-11T09:10:17.244Z,11.18
2024-04-11T09:12:45.053Z,11.27
2024-04-11T09:15:16.587Z,11.25
2024-04-11T09:17:47.335Z,11.33
2024-04-11T09:20:21.273Z,11.38
2024-04-11T09:22:50.443Z,11.39
2024-04-11T09:25:23.971Z,11.40
2024-04-11T09:27:52.253Z,11.43
2024-04-11T09:30:28.167Z,11.43
2024-04-11T09:33:00.502Z,11.47
2024-04-11T09:35:33.671Z,11.47
2024-04-11T09:38:03.707Z,11.50
2024-04-11T09:40:35.457Z,11.55
2024-04-11T09:43:08.222Z,11.53
2024-04-11T09:45:43.249Z,11.52
2024-04-11T09:48:14.109Z,11.51
2024-04-11T09:50:45.863Z,11.52
2024-04-11T09:53:27.329Z,11.51
2024-04-11T09:55:58.922Z,11.49
2024-04-11T09:58:29.753Z,11.49
2024-04-11T10:01:10.874Z,11.48
2024-04-11T10:03:41.578Z,11.50
2024-04-11T10:06:18.326Z,11.52
2024-04-11T10:08:48.543Z,11.50
2024-04-11T10:11:21.276Z,11.50
2024-04-11T10:13:50.599Z,11.46
2024-04-11T10:16:29.578Z,11.52
2024-04-11T10:19:07.141Z,11.49
2024-04-11T10:21:48.536Z,11.50
2024-04-11T10:24:28.504Z,11.53
2024-04-11T10:27:11.144Z,11.58
2024-04-11T10:29:44.704Z,11.61
2024-04-11T10:32:19.852Z,11.66
2024-04-11T10:34:57.855Z,11.71
2024-04-11T10:37:31.315Z,11.75
2024-04-11T10:40:00.029Z,11.76
2024-04-11T10:42:38.915Z,11.79
2024-04-11T10:45:12.227Z,11.83
2024-04-11T10:47:43.578Z,11.87
2024-04-11T10:50:16.114Z,11.90
2024-04-11T10:52:48.909Z,11.96
2024-04-11T10:55:24.412Z,12.00
2024-04-11T10:58:09.754Z,12.06
2024-04-11T11:00:57.569Z,12.10
2024-04-11T11:03:42.016Z,12.18
2024-04-11T11:06:16.606Z,12.23
2024-04-11T11:08:47.691Z,12.26
2024-04-11T11:11:16.583Z,12.28
2024-04-11T11:13:49.028Z,12.31
2024-04-11T11:16:22.592Z,12.35
2024-04-11T11:18:53.813Z,12.37
2024-04-11T11:21:24.136Z,12.40
2024-04-11T11:24:02.182Z,12.42
2024-04-11T11:26:37.021Z,12.45
2024-04-11T11:29:09.003Z,12.49
2024-04-11T11:31:38.199Z,12.52
2024-04-11T11:34:11.099Z,12.55
2024-04-11T11:36:48.959Z,12.57
2024-04-11T11:39:26.730Z,12.62
2024-04-11T11:42:01.758Z,12.66
2024-04-11T11:44:42.439Z,12.65
2024-04-11T11:47:10.189Z,12.69
2024-04-11T11:49:41.097Z,12.78
2024-04-11T11:52:15.311Z,12.79
2024-04-11T11:54:45.604Z,12.82
2024-04-11T11:57:19.253Z,12.83
2024-04-11T11:59:49.678Z,12.92
2024-04-11T12:02:17.477Z,12.96
2024-04-11T12:04:54.063Z,13.04
2024-04-11T12:07:26.185Z,13.10
2024-04-11T12:10:14.208Z,13.17
2024-04-11T12:12:48.117Z,13.19
2024-04-11T12:15:24.544Z,13.24
2024-04-11T12:17:56.674Z,13.29
2024-04-11T12:20:31.884Z,13.31
2024-04-11T12:23:07.900Z,13.39
2024-04-11T12:25:38.166Z,13.44
2024-04-11T12:28:06.183Z,13.49
2024-04-11T12:30:37.684Z,13.50
2024-04-11T12:33:06.835Z,13.63
2024-04-11T12:35:47.098Z,13.78
2024-04-11T12:38:21.531Z,13.91
2024-04-11T12:40:52.547Z,13.91
2024-04-11T12:43:20.436Z,13.93
2024-04-11T12:45:55.800Z,13.98
2024-04-11T12:48:26.412Z,14.00
2024-04-11T12:51:00.665Z,14.04
2024-04-11T12:53:32.824Z,14.08
2024-04-11T12:56:08.038Z,14.12
2024-04-11T12:58:42.800Z,14.12
2024-04-11T13:01:16.381Z,14.07
2024-04-11T13:03:54.338Z,14.08
2024-04-11T13:06:31.311Z,14.12
2024-04-11T13:09:11.425Z,14.14
2024-04-11T13:11:44.336Z,14.13
2024-04-11T13:14:12.125Z,14.13
2024-04-11T13:16:46.271Z,14.12
2024-04-11T13:19:20.310Z,14.16
2024-04-11T13:22:03.749Z,14.18
2024-04-11T13:24:47.184Z,14.24
2024-04-11T13:27:29.952Z,14.29
2024-04-11T13:30:13.148Z,14.42
2024-04-11T13:32:49.770Z,14.52
2024-04-11T13:35:38.161Z,14.62
2024-04-11T13:38:17.533Z,14.81
2024-04-11T13:41:07.673Z,14.88
2024-04-11T13:43:39.098Z,14.98
2024-04-11T13:46:13.211Z,14.99
2024-04-11T13:48:49.217Z,15.09
2024-04-11T13:51:25.798Z,15.34
2024-04-11T13:53:56.628Z,15.50
2024-04-11T13:56:31.232Z,15.60
2024-04-11T13:59:00.041Z,15.55
2024-04-11T14:01:43.969Z,15.61
2024-04-11T14:04:17.257Z,15.63
2024-04-11T14:07:05.009Z,15.62
2024-04-11T14:09:37.586Z,15.52
2024-04-11T14:12:11.966Z,15.45
2024-04-11T14:14:40.256Z,15.45
2024-04-11T14:17:18.702Z,15.44
2024-04-11T14:19:54.108Z,15.46
2024-04-11T14:22:36.756Z,15.46
2024-04-11T14:25:23.416Z,15.53
2024-04-11T14:28:01.233Z,15.60
2024-04-11T14:30:35.368Z,15.66
2024-04-11T14:33:35.327Z,15.69
2024-04-11T14:36:22.036Z,15.65
2024-04-11T14:38:52.326Z,15.62
2024-04-11T14:41:20.193Z,15.63
2024-04-11T14:44:01.095Z,15.62
2024-04-11T14:46:34.633Z,15.62
2024-04-11T14:49:06.170Z,15.61
2024-04-11T14:51:41.837Z,15.61
2024-04-11T14:54:17.711Z,15.55
2024-04-11T14:56:46.956Z,15.58
2024-04-11T14:59:20.041Z,15.62
2024-04-11T15:01:54.454Z,15.64
2024-04-11T15:04:29.771Z,15.64
2024-04-11T15:07:02.444Z,15.58
2024-04-11T15:09:36.552Z,15.57
2024-04-11T15:12:10.989Z,15.58
2024-04-11T15:14:46.682Z,15.57
2024-04-11T15:17:26.451Z,15.57
2024-04-11T15:19:58.053Z,15.57
2024-04-11T15:22:26.416Z,15.52
2024-04-11T15:25:01.273Z,15.51
2024-04-11T15:27:31.456Z,15.49
2024-04-11T15:30:08.635Z,15.50
2024-04-11T15:32:49.941Z,15.50
2024-04-11T15:35:21.679Z,15.48
2024-04-11T15:38:18.020Z,15.49
2024-04-11T15:40:52.986Z,15.50
2024-04-11T15:43:23.015Z,15.52
2024-04-11T15:46:09.008Z,15.49
2024-04-11T15:48:38.269Z,15.51
2024-04-11T15:51:10.543Z,15.53
2024-04-11T15:53:38.751Z,15.54
2024-04-11T15:56:15.084Z,15.56
2024-04-11T15:58:56.201Z,15.58
2024-04-11T16:01:32.586Z,15.63
2024-04-11T16:04:00.643Z,15.66
2024-04-11T16:06:33.588Z,15.69
2024-04-11T16:09:12.918Z,15.71
2024-04-11T16:11:45.518Z,15.71
2024-04-11T16:14:16.840Z,15.73
2024-04-11T16:16:56.255Z,15.70
2024-04-11T16:19:28.518Z,15.68
2024-04-11T16:22:11.787Z,15.69
2024-04-11T16:24:50.830Z,15.70
2024-04-11T16:27:27.772Z,15.69
2024-04-11T16:30:01.283Z,15.68
2024-04-11T16:32:41.275Z,15.67
2024-04-11T16:35:09.171Z,15.65
2024-04-11T16:37:40.445Z,15.65
2024-04-11T16:40:24.749Z,15.65
2024-04-11T16:42:55.936Z,15.64
2024-04-11T16:45:26.119Z,15.64
2024-04-11T16:48:00.952Z,15.63
2024-04-11T16:50:37.850Z,15.61
2024-04-11T16:53:10.798Z,15.60
2024-04-11T16:55:41.698Z,15.58
2024-04-11T16:58:21.154Z,15.56
2024-04-11T17:00:49.303Z,15.54
2024-04-11T17:03:27.666Z,15.51
2024-04-11T17:05:59.729Z,15.49
2024-04-11T17:08:30.685Z,15.46
2024-04-11T17:10:58.903Z,15.45
2024-04-11T17:13:34.340Z,15.41
2024-04-11T17:16:16.795Z,15.43
2024-04-11T17:18:58.360Z,15.41
2024-04-11T17:21:30.933Z,15.42
2024-04-11T17:24:06.496Z,15.40
2024-04-11T17:26:36.668Z,15.41
2024-04-11T17:29:07.064Z,15.40
2024-04-11T17:31:35.789Z,15.42
2024-04-11T17:34:08.991Z,15.38
2024-04-11T17:36:37.997Z,15.39
2024-04-11T17:39:26.857Z,15.35
2024-04-11T17:42:14.671Z,15.32
2024-04-11T17:45:03.094Z,15.31
2024-04-11T17:47:34.007Z,15.29
2024-04-11T17:50:06.128Z,15.27
2024-04-11T17:52:46.547Z,15.23
2024-04-11T17:55:25.563Z,15.22
2024-04-11T17:57:57.421Z,15.19
2024-04-11T18:00:32.390Z,15.18
2024-04-11T18:03:04.578Z,15.17
2024-04-11T18:05:35.265Z,15.19
2024-04-11T18:08:08.418Z,15.18
2024-04-11T18:10:39.118Z,15.17
2024-04-11T18:13:18.119Z,15.15
2024-04-11T18:15:51.202Z,15.13
2024-04-11T18:18:25.337Z,15.12
2024-04-11T18:20:56.601Z,15.08
2024-04-11T18:23:28.196Z,15.07
2024-04-11T18:25:58.353Z,15.04
2024-04-11T18:28:34.473Z,15.02
2024-04-11T18:31:07.139Z,15.01
2024-04-11T18:33:40.186Z,15.00
2024-04-11T18:36:16.513Z,14.96
2024-04-11T18:38:52.623Z,14.94
2024-04-11T18:41:31.762Z,14.97
2024-04-11T18:44:09.757Z,14.95
2024-04-11T18:46:49.651Z,14.95
2024-04-11T18:49:26.616Z,14.92
2024-04-11T18:52:00.758Z,14.90
2024-04-11T18:54:32.385Z,14.88
2024-04-11T18:57:02.673Z,14.87
2024-04-11T18:59:36.305Z,14.88
2024-04-11T19:02:09.463Z,14.86
2024-04-11T19:04:47.329Z,14.87
2024-04-11T19:07:22.359Z,14.85
2024-04-11T19:10:14.525Z,14.87
2024-04-11T19:12:42.934Z,14.84
2024-04-11T19:15:17.321Z,14.82
2024-04-11T19:17:46.992Z,14.80
2024-04-11T19:20:29.979Z,14.76
2024-04-11T19:23:05.891Z,14.73
2024-04-11T19:25:37.744Z,14.69
2024-04-11T19:28:15.319Z,14.67
2024-04-11T19:30:47.475Z,14.66
2024-04-11T19:33:22.678Z,14.64
2024-04-11T19:35:56.359Z,14.62
2024-04-11T19:38:32.067Z,14.62
2024-04-11T19:41:03.554Z,14.60
2024-04-11T19:43:32.993Z,14.59
2024-04-11T19:46:08.706Z,14.56
2024-04-11T19:48:38.410Z,14.55
2024-04-11T19:51:15.903Z,14.50
2024-04-11T19:53:54.114Z,14.47
2024-04-11T19:56:28.279Z,14.44
2024-04-11T19:59:02.496Z,14.42
2024-04-11T20:01:47.923Z,14.44
2024-04-11T20:04:30.586Z,14.44
2024-04-11T20:07:02.881Z,14.43
2024-04-11T20:09:36.976Z,14.42
2024-04-11T20:12:09.122Z,14.41
2024-04-11T20:14:40.151Z,14.40
2024-04-11T20:17:18.533Z,14.40
2024-04-11T20:20:00.146Z,14.40
2024-04-11T20:22:28.918Z,14.39
2024-04-11T20:25:01.937Z,14.40
2024-04-11T20:27:30.326Z,14.41
2024-04-11T20:30:01.081Z,14.40
2024-04-11T20:32:30.918Z,14.40
2024-04-11T20:35:05.966Z,14.39
2024-04-11T20:37:34.881Z,14.39
2024-04-11T20:40:11.331Z,14.36
2024-04-11T20:42:59.951Z,14.34
2024-04-11T20:45:30.894Z,14.36
2024-04-11T20:48:13.856Z,14.37
2024-04-11T20:51:02.161Z,14.34
2024-04-11T20:53:48.638Z,14.33
2024-04-11T20:56:46.521Z,14.33
2024-04-11T20:59:32.707Z,14.33
2024-04-11T21:02:18.845Z,14.32
2024-04-11T21:05:05.259Z,14.27
2024-04-11T21:07:51.362Z,14.27
2024-04-11T21:10:37.901Z,14.27
2024-04-11T21:13:26.456Z,14.26
2024-04-11T21:16:12.713Z,14.24
2024-04-11T21:18:58.783Z,14.25
2024-04-11T21:21:45.149Z,14.20
2024-04-11T21:24:30.974Z,14.17
2024-04-11T21:27:17.133Z,14.18
2024-04-11T21:30:05.812Z,14.16
2024-04-11T21:32:51.907Z,14.14
2024-04-11T21:35:23.253Z,14.13
2024-04-11T21:38:02.848Z,14.11
2024-04-11T21:40:33.949Z,14.12
2024-04-11T21:43:06.974Z,14.12
2024-04-11T21:45:40.415Z,14.11
2024-04-11T21:48:11.083Z,14.10
2024-04-11T21:50:44.230Z,14.10
2024-04-11T21:53:18.690Z,14.11
2024-04-11T21:55:50.913Z,14.09
2024-04-11T21:58:20.120Z,14.07
2024-04-11T22:01:03.460Z,14.05
2024-04-11T22:03:31.571Z,14.04
2024-04-11T22:06:02.514Z,14.03
2024-04-11T22:08:32.450Z,14.01
2024-04-11T22:11:06.964Z,14.02
2024-04-11T22:13:38.062Z,14.01
2024-04-11T22:16:11.593Z,14.00
2024-04-11T22:18:41.682Z,13.98
2024-04-11T22:21:24.149Z,13.99
2024-04-11T22:23:52.423Z,13.97
2024-04-11T22:26:24.289Z,13.96
2024-04-11T22:28:55.204Z,13.96
2024-04-11T22:31:31.888Z,13.95
2024-04-11T22:34:00.693Z,13.94
2024-04-11T22:36:35.677Z,13.94
2024-04-11T22:39:04.267Z,13.94
2024-04-11T22:41:34.854Z,13.94
2024-04-11T22:44:04.446Z,13.95
2024-04-11T22:46:38.884Z,13.95
2024-04-11T22:49:16.077Z,13.93
2024-04-11T22:51:53.662Z,13.92
2024-04-11T22:54:24.860Z,13.90
2024-04-11T22:57:00.037Z,13.87
2024-04-11T22:59:37.340Z,13.85
2024-04-11T23:02:19.391Z,13.84
2024-04-11T23:04:50.200Z,13.84
2024-04-11T23:07:39.189Z,13.80
2024-04-11T23:10:18.722Z,13.82
2024-04-11T23:12:48.628Z,13.80
2024-04-11T23:15:21.101Z,13.80
2024-04-11T23:17:59.006Z,13.81
2024-04-11T23:20:31.266Z,13.80
2024-04-11T23:23:00.631Z,13.78
2024-04-11T23:25:39.087Z,13.78
2024-04-11T23:28:07.184Z,13.75
2024-04-11T23:30:41.260Z,13.77
2024-04-11T23:33:15.734Z,13.76
2024-04-11T23:35:50.184Z,13.76
2024-04-11T23:38:20.481Z,13.75
2024-04-11T23:40:52.064Z,13.73
2024-04-11T23:43:26.045Z,13.73
2024-04-11T23:46:02.483Z,13.72
2024-04-11T23:48:40.781Z,13.71
2024-04-11T23:51:21.684Z,13.69
2024-04-11T23:53:54.251Z,13.68
2024-04-11T23:56:36.306Z,13.69
2024-04-11T23:59:13.107Z,13.67
